TimeMDT,TemperatureF,Dew PointF,Humidity,Sea Level PressureIn,VisibilityMPH,Wind Direction,Wind SpeedMPH,Gust SpeedMPH,PrecipitationIn,Events,Conditions,WindDirDegrees,DateUTC
12:15 AM,60.8,30.2,31,30.18,10.0,NNW,9.2,-,N/A,,Clear,330,2013-07-14 06:15:00
12:35 AM,60.8,30.2,31,30.19,10.0,NW,10.4,-,N/A,,Clear,310,2013-07-14 06:35:00
12:55 AM,59.0,30.2,34,30.19,10.0,NW,10.4,-,N/A,,Clear,320,2013-07-14 06:55:00
1:15 AM,59.0,30.2,34,30.19,10.0,NW,10.4,-,N/A,,Clear,320,2013-07-14 07:15:00
1:35 AM,59.0,32.0,36,30.19,10.0,NW,8.1,-,N/A,,Clear,310,2013-07-14 07:35:00
1:55 AM,59.0,30.2,34,30.19,10.0,NW,11.5,-,N/A,,Clear,320,2013-07-14 07:55:00
2:15 AM,57.2,30.2,36,30.19,10.0,NW,10.4,-,N/A,,Clear,320,2013-07-14 08:15:00
2:35 AM,55.4,30.2,38,30.19,10.0,WNW,10.4,-,N/A,,Clear,300,2013-07-14 08:35:00
2:55 AM,55.4,30.2,38,30.19,10.0,NW,10.4,-,N/A,,Clear,310,2013-07-14 08:55:00
3:15 AM,55.4,30.2,38,30.19,10.0,NW,10.4,-,N/A,,Clear,310,2013-07-14 09:15:00
3:35 AM,55.4,30.2,38,30.19,10.0,NW,13.8,-,N/A,,Clear,320,2013-07-14 09:35:00
3:55 AM,55.4,30.2,38,30.19,10.0,NW,9.2,-,N/A,,Clear,320,2013-07-14 09:55:00
4:15 AM,55.4,30.2,38,30.19,10.0,NW,10.4,17.3,N/A,,Clear,310,2013-07-14 10:15:00
4:35 AM,53.6,30.2,41,30.20,10.0,NW,11.5,-,N/A,,Clear,310,2013-07-14 10:35:00
4:55 AM,53.6,30.2,41,30.20,10.0,NW,10.4,-,N/A,,Clear,310,2013-07-14 10:55:00
5:15 AM,53.6,30.2,41,30.20,10.0,NW,11.5,-,N/A,,Clear,310,2013-07-14 11:15:00
5:35 AM,53.6,30.2,41,30.20,10.0,NW,11.5,-,N/A,,Clear,310,2013-07-14 11:35:00
5:55 AM,53.6,30.2,41,30.20,10.0,NW,13.8,-,N/A,,Clear,310,2013-07-14 11:55:00
6:15 AM,53.6,30.2,41,30.20,10.0,NW,10.4,-,N/A,,Clear,310,2013-07-14 12:15:00
6:35 AM,53.6,30.2,41,30.21,10.0,NW,9.2,-,N/A,,Clear,310,2013-07-14 12:35:00
6:47 AM,53.6,28.4,38,30.21,10.0,NW,10.4,-,N/A,,Scattered Clouds,310,2013-07-14 12:47:00
6:55 AM,53.6,30.2,41,30.22,10.0,NW,13.8,19.6,N/A,,Clear,310,2013-07-14 12:55:00
10:47 AM,77.0,33.8,21,30.22,10.0,ESE,9.2,-,N/A,,Clear,120,2013-07-14 16:47:00
12:47 PM,80.6,39.2,23,30.20,10.0,ESE,11.5,-,N/A,,Clear,120,2013-07-14 18:47:00
1:47 PM,84.2,39.2,20,30.18,10.0,ESE,10.4,-,N/A,,Partly Cloudy,120,2013-07-14 19:47:00
2:47 PM,86.0,33.8,15,30.16,10.0,WSW,11.5,19.6,N/A,,Partly Cloudy,240,2013-07-14 20:47:00
3:50 PM,87.8,33.8,15,30.14,10.0,West,16.1,23.0,N/A,,Partly Cloudy,260,2013-07-14 21:50:00
4:47 PM,87.8,33.8,15,30.13,10.0,West,10.4,17.3,N/A,,Partly Cloudy,260,2013-07-14 22:47:00
5:47 PM,87.8,30.2,13,30.11,10.0,WNW,11.5,18.4,N/A,,Partly Cloudy,300,2013-07-14 23:47:00
6:47 PM,86.0,33.8,15,30.10,10.0,WSW,10.4,-,N/A,,Partly Cloudy,250,2013-07-15 00:47:00
7:47 PM,86.0,30.2,13,30.09,10.0,West,5.8,-,N/A,,Scattered Clouds,270,2013-07-15 01:47:00
8:50 PM,75.2,41.0,29,30.09,10.0,West,4.6,-,N/A,,Partly Cloudy,280,2013-07-15 02:50:00
10:47 PM,71.6,32.0,23,30.13,10.0,NW,10.4,-,N/A,,Clear,310,2013-07-15 04:47:00
11:15 PM,68.0,32.0,26,30.12,10.0,NNW,8.1,-,N/A,,Clear,330,2013-07-15 05:15:00
11:35 PM,68.0,33.8,28,30.13,10.0,NW,6.9,-,N/A,,Clear,310,2013-07-15 05:35:00
11:55 PM,66.2,33.8,30,30.13,10.0,NW,6.9,-,N/A,,Clear,310,2013-07-15 05:55:00